createdAt,value
2023-03-29T00:01:35.699Z,2.10
2023-03-29T00:06:47.974Z,1.90
2023-03-29T00:09:22.217Z,2.10
2023-03-29T00:11:56.213Z,2.00
2023-03-29T00:14:31.038Z,2.10
2023-03-29T00:17:05.119Z,2.00
2023-03-29T00:19:46.913Z,2.00
2023-03-29T00:22:23.767Z,1.80
2023-03-29T00:24:59.524Z,2.00
2023-03-29T00:27:33.553Z,1.90
2023-03-29T00:30:11.277Z,2.20
2023-03-29T00:32:45.994Z,1.90
2023-03-29T00:35:21.332Z,2.10
2023-03-29T00:37:57.984Z,1.90
2023-03-29T00:40:31.838Z,1.90
2023-03-29T00:43:13.119Z,2.00
2023-03-29T00:45:48.160Z,2.00
2023-03-29T00:48:25.906Z,2.10
2023-03-29T00:51:09.864Z,1.80
2023-03-29T00:53:52.167Z,1.80
2023-03-29T00:56:31.577Z,1.90
2023-03-29T00:59:11.218Z,1.80
2023-03-29T01:01:55.197Z,1.80
2023-03-29T01:04:36.461Z,1.90
2023-03-29T01:07:21.553Z,1.90
2023-03-29T01:10:02.627Z,2.00
2023-03-29T01:12:43.746Z,1.90
2023-03-29T01:15:21.202Z,1.60
2023-03-29T01:17:59.957Z,2.20
2023-03-29T01:21:05.044Z,2.20
2023-03-29T01:24:07.756Z,1.90
2023-03-29T01:29:32.924Z,2.10
2023-03-29T01:32:12.891Z,2.00
2023-03-29T01:34:51.591Z,1.80
2023-03-29T01:37:34.717Z,1.90
2023-03-29T01:40:10.971Z,2.00
2023-03-29T01:42:53.780Z,1.80
2023-03-29T01:45:36.593Z,2.00
2023-03-29T01:48:18.593Z,1.90
2023-03-29T01:50:56.797Z,2.20
2023-03-29T01:53:36.497Z,1.90
2023-03-29T01:56:14.495Z,2.00
2023-03-29T01:58:52.626Z,1.90
2023-03-29T02:01:30.552Z,2.20
2023-03-29T02:04:10.785Z,2.20
2023-03-29T02:06:47.948Z,2.10
2023-03-29T02:09:25.889Z,1.90
2023-03-29T02:12:04.310Z,2.10
2023-03-29T02:14:38.369Z,2.20
2023-03-29T02:17:24.196Z,1.90
2023-03-29T02:20:01.701Z,2.00
2023-03-29T02:22:42.746Z,2.10
2023-03-29T02:25:19.132Z,2.30
2023-03-29T02:27:57.647Z,2.20
2023-03-29T02:30:41.894Z,2.10
2023-03-29T02:33:22.015Z,2.20
2023-03-29T02:36:04.562Z,2.10
2023-03-29T02:38:41.070Z,2.10
2023-03-29T02:41:21.851Z,2.20
2023-03-29T02:43:57.182Z,2.30
2023-03-29T02:46:35.166Z,2.00
2023-03-29T02:49:10.236Z,2.10
2023-03-29T02:51:47.408Z,2.10
2023-03-29T02:54:23.560Z,2.20
2023-03-29T02:57:02.879Z,2.40
2023-03-29T02:59:45.972Z,2.20
2023-03-29T03:02:22.370Z,2.00
2023-03-29T03:05:01.059Z,2.00
2023-03-29T03:07:35.898Z,2.10
2023-03-29T03:10:12.723Z,2.50
2023-03-29T03:12:47.603Z,2.40
2023-03-29T03:15:22.808Z,2.20
2023-03-29T03:17:59.475Z,2.00
2023-03-29T03:20:35.056Z,2.20
2023-03-29T03:23:10.810Z,2.30
2023-03-29T03:25:49.266Z,2.30
2023-03-29T03:28:28.554Z,1.80
2023-03-29T03:31:03.747Z,2.10
2023-03-29T03:33:41.129Z,2.40
2023-03-29T03:36:16.279Z,2.30
2023-03-29T03:38:51.512Z,2.20
2023-03-29T03:41:26.248Z,2.60
2023-03-29T03:44:00.965Z,2.10
2023-03-29T03:46:35.966Z,2.50
2023-03-29T03:49:10.948Z,2.10
2023-03-29T03:51:46.551Z,2.10
2023-03-29T03:54:22.644Z,2.30
2023-03-29T03:56:59.607Z,2.30
2023-03-29T03:59:35.633Z,2.10
2023-03-29T04:02:14.149Z,2.40
2023-03-29T04:04:51.547Z,2.20
2023-03-29T04:07:28.212Z,2.20
2023-03-29T04:10:04.234Z,2.20
2023-03-29T04:12:40.846Z,2.30
2023-03-29T04:15:18.029Z,2.10
2023-03-29T04:17:54.366Z,2.20
2023-03-29T04:20:34.108Z,2.10
2023-03-29T04:23:08.965Z,2.00
2023-03-29T04:25:45.203Z,2.30
2023-03-29T04:28:20.069Z,2.00
2023-03-29T04:30:58.858Z,2.30
2023-03-29T04:33:36.537Z,2.30
2023-03-29T04:36:13.956Z,2.00
2023-03-29T04:38:53.361Z,2.10
2023-03-29T04:41:30.039Z,2.10
2023-03-29T04:44:06.950Z,2.50
2023-03-29T04:46:44.650Z,2.40
2023-03-29T04:49:21.236Z,2.30
2023-03-29T04:51:57.393Z,2.20
2023-03-29T04:54:34.736Z,2.70
2023-03-29T04:57:11.676Z,3.20
2023-03-29T04:59:48.076Z,2.90
2023-03-29T05:02:25.250Z,3.00
2023-03-29T05:05:02.878Z,3.20
2023-03-29T05:07:37.290Z,3.20
2023-03-29T05:10:13.012Z,3.20
2023-03-29T05:12:51.817Z,3.00
2023-03-29T05:15:25.908Z,3.40
2023-03-29T05:18:02.346Z,4.20
2023-03-29T05:20:40.734Z,4.20
2023-03-29T05:23:16.900Z,4.00
2023-03-29T05:25:54.184Z,3.60
2023-03-29T05:28:35.722Z,4.10
2023-03-29T05:31:10.568Z,4.00
2023-03-29T05:33:45.158Z,3.70
2023-03-29T05:36:22.768Z,3.70
2023-03-29T05:38:58.540Z,3.70
2023-03-29T05:41:32.449Z,3.50
2023-03-29T05:44:08.596Z,3.90
2023-03-29T05:46:42.201Z,3.70
2023-03-29T05:49:16.667Z,3.60
2023-03-29T05:51:52.405Z,3.60
2023-03-29T05:54:27.259Z,3.70
2023-03-29T05:57:02.293Z,3.80
2023-03-29T05:59:38.561Z,3.60
2023-03-29T06:02:12.601Z,3.40
2023-03-29T06:04:52.245Z,3.60
2023-03-29T06:07:30.666Z,3.70
2023-03-29T06:10:05.804Z,3.80
2023-03-29T06:12:43.729Z,4.00
2023-03-29T06:15:19.838Z,3.90
2023-03-29T06:17:57.551Z,3.90
2023-03-29T06:20:36.506Z,3.80
2023-03-29T06:23:11.316Z,3.80
2023-03-29T06:25:46.207Z,3.60
2023-03-29T06:28:25.032Z,3.90
2023-03-29T06:31:02.962Z,3.80
2023-03-29T06:33:40.218Z,3.80
2023-03-29T06:36:16.279Z,3.70
2023-03-29T06:38:49.615Z,3.40
2023-03-29T06:41:24.866Z,3.60
2023-03-29T06:43:58.292Z,3.30
2023-03-29T06:46:31.881Z,3.60
2023-03-29T06:49:05.283Z,3.70
2023-03-29T06:51:41.286Z,3.70
2023-03-29T06:54:16.696Z,3.60
2023-03-29T06:56:49.964Z,3.50
2023-03-29T06:59:27.113Z,3.50
2023-03-29T07:02:00.369Z,3.60
2023-03-29T07:04:35.154Z,4.00
2023-03-29T07:07:20.061Z,3.50
2023-03-29T07:09:55.615Z,3.40
2023-03-29T07:12:30.458Z,3.50
2023-03-29T07:15:04.725Z,3.50
2023-03-29T07:17:38.511Z,3.70
2023-03-29T07:20:14.902Z,3.50
2023-03-29T07:22:52.303Z,3.50
2023-03-29T07:25:27.664Z,4.00
2023-03-29T07:28:04.149Z,3.20
2023-03-29T07:30:37.757Z,3.40
2023-03-29T07:33:12.395Z,3.40
2023-03-29T07:35:49.919Z,3.60
2023-03-29T07:38:27.003Z,3.60
2023-03-29T07:41:03.439Z,3.30
2023-03-29T07:43:38.116Z,3.40
2023-03-29T07:46:11.802Z,3.40
2023-03-29T07:48:45.162Z,3.10
2023-03-29T07:51:19.680Z,3.20
2023-03-29T07:53:55.545Z,2.90
2023-03-29T07:56:30.232Z,2.90
2023-03-29T07:59:03.864Z,3.00
2023-03-29T08:01:40.922Z,2.90
2023-03-29T08:04:15.931Z,2.90
2023-03-29T08:06:50.519Z,3.00
2023-03-29T08:09:27.763Z,2.60
2023-03-29T08:12:02.574Z,2.80
2023-03-29T08:14:36.650Z,3.00
2023-03-29T08:17:09.930Z,2.70
2023-03-29T08:19:51.289Z,2.40
2023-03-29T08:22:25.748Z,2.50
2023-03-29T08:25:05.041Z,2.40
2023-03-29T08:27:41.488Z,2.00
2023-03-29T08:30:16.271Z,2.20
2023-03-29T08:32:55.147Z,2.30
2023-03-29T08:35:35.865Z,2.20
2023-03-29T08:38:09.820Z,2.20
2023-03-29T08:40:50.591Z,2.30
2023-03-29T08:43:49.519Z,2.10
2023-03-29T08:46:37.317Z,2.00
2023-03-29T08:49:13.561Z,2.20
2023-03-29T08:51:53.010Z,2.20
2023-03-29T08:54:42.518Z,1.90
2023-03-29T08:57:26.582Z,1.90
2023-03-29T09:00:11.563Z,2.10
2023-03-29T09:02:46.474Z,1.80
2023-03-29T09:05:28.125Z,1.80
2023-03-29T09:08:08.490Z,1.70
2023-03-29T09:10:50.673Z,1.70
2023-03-29T09:13:39.842Z,1.70
2023-03-29T09:16:21.631Z,1.80
2023-03-29T09:19:09.013Z,1.60
2023-03-29T09:21:54.274Z,1.60
2023-03-29T09:24:54.130Z,1.60
2023-03-29T09:27:33.323Z,1.70
2023-03-29T09:30:26.053Z,1.80
2023-03-29T09:33:05.276Z,1.60
2023-03-29T09:35:45.613Z,1.60
2023-03-29T09:38:26.351Z,1.50
2023-03-29T09:41:07.833Z,1.50
2023-03-29T09:43:47.852Z,1.60
2023-03-29T09:46:32.691Z,1.60
2023-03-29T09:49:17.329Z,1.30
2023-03-29T09:51:54.375Z,1.60
2023-03-29T09:54:30.449Z,1.70
2023-03-29T09:57:08.140Z,1.50
2023-03-29T09:59:45.289Z,1.30
2023-03-29T10:02:27.306Z,1.40
2023-03-29T10:05:07.450Z,1.40
2023-03-29T10:07:51.198Z,1.40
2023-03-29T10:10:32.941Z,1.60
2023-03-29T10:13:14.353Z,1.40
2023-03-29T10:16:01.899Z,1.70
2023-03-29T10:18:40.759Z,1.40
2023-03-29T10:21:19.733Z,1.50
2023-03-29T10:24:01.568Z,1.50
2023-03-29T10:26:36.903Z,1.80
2023-03-29T10:29:12.238Z,1.30
2023-03-29T10:31:46.606Z,1.60
2023-03-29T10:34:25.182Z,1.60
2023-03-29T10:37:07.825Z,1.50
2023-03-29T10:39:43.237Z,1.30
2023-03-29T10:42:21.799Z,1.40
2023-03-29T10:45:00.921Z,1.50
2023-03-29T10:47:38.832Z,1.60
2023-03-29T10:50:18.311Z,1.40
2023-03-29T10:52:53.336Z,1.40
2023-03-29T10:55:37.368Z,1.50
2023-03-29T10:58:29.007Z,1.50
2023-03-29T11:01:02.788Z,1.40
2023-03-29T11:04:02.482Z,1.40
2023-03-29T11:06:42.123Z,1.30
2023-03-29T11:09:27.015Z,1.50
2023-03-29T11:12:16.393Z,1.40
2023-03-29T11:15:13.844Z,1.40
2023-03-29T11:18:03.536Z,1.30
2023-03-29T11:20:44.686Z,1.50
2023-03-29T11:23:33.660Z,1.30
2023-03-29T11:26:19.082Z,1.30
2023-03-29T11:29:00.663Z,1.30
2023-03-29T11:31:42.103Z,1.40
2023-03-29T11:34:30.465Z,1.50
2023-03-29T11:38:10.033Z,1.60
2023-03-29T11:41:00.350Z,1.20
2023-03-29T11:43:42.838Z,1.40
2023-03-29T11:46:21.843Z,1.20
2023-03-29T11:49:00.376Z,1.30
2023-03-29T11:51:41.690Z,1.30
2023-03-29T11:54:23.277Z,1.30
2023-03-29T11:57:03.209Z,1.60
2023-03-29T11:59:42.888Z,1.50
2023-03-29T12:02:25.815Z,1.50
2023-03-29T12:05:07.761Z,1.50
2023-03-29T12:07:46.905Z,1.40
2023-03-29T12:10:25.030Z,1.40
2023-03-29T12:13:06.049Z,1.50
2023-03-29T12:15:47.359Z,1.40
2023-03-29T12:18:28.648Z,1.20
2023-03-29T12:21:08.339Z,1.30
2023-03-29T12:23:44.646Z,1.20
2023-03-29T12:26:40.711Z,1.50
2023-03-29T12:29:36.548Z,1.40
2023-03-29T12:32:32.206Z,1.30
2023-03-29T12:35:28.050Z,1.30
2023-03-29T12:38:14.260Z,1.30
2023-03-29T12:40:55.868Z,1.30
2023-03-29T12:43:34.238Z,1.60
2023-03-29T12:46:16.537Z,1.50
2023-03-29T12:48:54.458Z,1.60
2023-03-29T12:51:37.307Z,1.60
2023-03-29T12:54:17.950Z,1.50
2023-03-29T12:57:01.992Z,1.50
2023-03-29T12:59:47.170Z,1.50
2023-03-29T13:02:42.288Z,1.60
2023-03-29T13:05:35.288Z,1.60
2023-03-29T13:08:35.262Z,1.60
2023-03-29T13:11:24.759Z,1.60
2023-03-29T13:13:58.474Z,1.70
2023-03-29T13:16:36.096Z,1.70
2023-03-29T13:19:27.808Z,1.90
2023-03-29T13:22:16.403Z,1.70
2023-03-29T13:25:09.735Z,2.00
2023-03-29T13:27:54.097Z,1.70
2023-03-29T13:30:45.630Z,1.90
2023-03-29T13:33:45.804Z,1.90
2023-03-29T13:36:39.671Z,2.00
2023-03-29T13:39:29.351Z,1.90
2023-03-29T13:42:21.657Z,1.70
2023-03-29T13:47:55.009Z,1.70
2023-03-29T13:50:41.588Z,1.80
2023-03-29T13:53:26.234Z,1.90
2023-03-29T13:56:03.844Z,2.10
2023-03-29T13:58:44.989Z,1.90
2023-03-29T14:01:28.606Z,1.60
2023-03-29T14:04:09.056Z,1.90
2023-03-29T14:06:49.641Z,1.70
2023-03-29T14:09:28.152Z,1.90
2023-03-29T14:12:03.024Z,2.10
2023-03-29T14:14:42.630Z,2.60
2023-03-29T14:17:27.423Z,2.50
2023-03-29T14:20:07.999Z,4.00
2023-03-29T14:22:45.253Z,4.60
2023-03-29T14:25:22.684Z,4.90
2023-03-29T14:27:56.000Z,5.70
2023-03-29T14:30:32.388Z,4.40
2023-03-29T14:33:07.106Z,3.40
2023-03-29T14:35:41.904Z,3.20
2023-03-29T14:38:18.292Z,3.10
2023-03-29T14:40:53.429Z,3.10
2023-03-29T14:43:30.384Z,2.60
2023-03-29T14:46:07.816Z,2.30
2023-03-29T14:48:41.704Z,2.30
2023-03-29T14:51:15.628Z,2.40
2023-03-29T14:53:49.416Z,2.30
2023-03-29T14:56:25.492Z,2.10
2023-03-29T14:59:00.318Z,2.10
2023-03-29T15:01:33.689Z,2.00
2023-03-29T15:04:11.021Z,2.10
2023-03-29T15:06:46.982Z,2.40
2023-03-29T15:09:24.556Z,2.00
2023-03-29T15:12:00.251Z,2.20
2023-03-29T15:14:37.093Z,2.10
2023-03-29T15:17:46.985Z,2.10
2023-03-29T15:20:28.499Z,2.30
2023-03-29T15:23:05.026Z,2.00
2023-03-29T15:25:47.775Z,2.00
2023-03-29T15:28:31.252Z,2.30
2023-03-29T15:31:18.941Z,1.80
2023-03-29T15:34:02.090Z,2.00
2023-03-29T15:36:40.535Z,1.90
2023-03-29T15:39:17.053Z,1.90
2023-03-29T15:41:52.494Z,1.90
2023-03-29T15:44:30.159Z,2.00
2023-03-29T15:47:07.434Z,2.10
2023-03-29T15:49:40.784Z,2.40
2023-03-29T15:52:14.227Z,2.30
2023-03-29T15:54:48.487Z,2.30
2023-03-29T15:57:22.535Z,2.10
2023-03-29T15:59:56.066Z,2.10
2023-03-29T16:02:29.807Z,1.90
2023-03-29T16:05:03.195Z,2.00
2023-03-29T16:07:38.456Z,2.20
2023-03-29T16:10:13.121Z,2.00
2023-03-29T16:12:46.445Z,1.90
2023-03-29T16:15:22.893Z,1.80
2023-03-29T16:17:56.613Z,1.80
2023-03-29T16:20:29.945Z,1.90
2023-03-29T16:23:08.783Z,1.90
2023-03-29T16:25:43.519Z,1.90
2023-03-29T16:28:18.099Z,2.00
2023-03-29T16:30:52.563Z,1.90
2023-03-29T16:33:27.272Z,1.80
2023-03-29T16:36:03.564Z,1.70
2023-03-29T16:38:37.624Z,1.90
2023-03-29T16:41:13.683Z,1.70
2023-03-29T16:43:49.474Z,1.70
2023-03-29T16:46:23.941Z,1.70
2023-03-29T16:48:57.882Z,1.80
2023-03-29T16:51:31.224Z,1.90
2023-03-29T16:54:07.694Z,1.80
2023-03-29T16:56:41.211Z,1.70
2023-03-29T16:59:15.512Z,1.70
2023-03-29T17:01:49.160Z,1.70
2023-03-29T17:04:22.534Z,1.70
2023-03-29T17:06:56.898Z,1.80
2023-03-29T17:09:30.993Z,1.70
2023-03-29T17:12:04.078Z,1.90
2023-03-29T17:14:38.100Z,1.70
2023-03-29T17:17:11.750Z,1.80
2023-03-29T17:19:46.262Z,1.90
2023-03-29T17:22:20.703Z,1.90
2023-03-29T17:24:54.054Z,1.90
2023-03-29T17:27:29.375Z,1.60
2023-03-29T17:30:02.865Z,1.70
2023-03-29T17:32:36.769Z,1.70
2023-03-29T17:35:12.728Z,1.70
2023-03-29T17:37:45.940Z,2.10
2023-03-29T17:40:20.069Z,1.70
2023-03-29T17:42:54.227Z,1.70
2023-03-29T17:45:27.631Z,1.50
2023-03-29T17:48:02.367Z,1.80
2023-03-29T17:50:37.434Z,1.90
2023-03-29T17:53:12.145Z,1.60
2023-03-29T17:55:45.844Z,1.80
2023-03-29T17:58:20.457Z,1.70
2023-03-29T18:00:55.768Z,1.80
2023-03-29T18:03:29.742Z,1.90
2023-03-29T18:06:03.958Z,1.70
2023-03-29T18:08:37.691Z,1.90
2023-03-29T18:11:18.825Z,1.90
2023-03-29T18:13:53.544Z,2.10
2023-03-29T18:16:27.330Z,1.90
2023-03-29T18:19:03.466Z,2.00
2023-03-29T18:21:37.201Z,2.10
2023-03-29T18:24:13.314Z,1.80
2023-03-29T18:26:48.407Z,2.20
2023-03-29T18:29:24.002Z,2.10
2023-03-29T18:32:03.108Z,2.20
2023-03-29T18:34:40.402Z,2.50
2023-03-29T18:37:17.746Z,2.30
2023-03-29T18:39:55.153Z,2.20
2023-03-29T18:42:31.409Z,2.10
2023-03-29T18:45:09.414Z,2.40
2023-03-29T18:47:46.976Z,2.10
2023-03-29T18:50:25.922Z,2.40
2023-03-29T18:53:07.782Z,2.40
2023-03-29T18:55:43.844Z,2.40
2023-03-29T18:58:23.905Z,2.50
2023-03-29T19:01:04.269Z,2.30
2023-03-29T19:03:40.172Z,2.60
2023-03-29T19:06:15.748Z,2.50
2023-03-29T19:08:50.548Z,2.90
2023-03-29T19:11:25.524Z,2.40
2023-03-29T19:14:00.604Z,2.40
2023-03-29T19:16:38.923Z,2.90
2023-03-29T19:19:16.920Z,2.50
2023-03-29T19:21:53.656Z,2.50
2023-03-29T19:24:28.985Z,2.80
2023-03-29T19:27:06.561Z,2.90
2023-03-29T19:29:48.237Z,2.70
2023-03-29T19:32:24.173Z,2.70
2023-03-29T19:35:00.030Z,2.80
2023-03-29T19:37:37.506Z,2.60
2023-03-29T19:40:13.686Z,2.60
2023-03-29T19:42:50.248Z,2.70
2023-03-29T19:45:25.044Z,2.80
2023-03-29T19:48:03.404Z,2.70
2023-03-29T19:50:41.929Z,3.00
2023-03-29T19:53:18.753Z,3.10
2023-03-29T19:55:55.094Z,2.70
2023-03-29T19:58:29.342Z,2.80
2023-03-29T20:01:03.835Z,2.70
2023-03-29T20:03:43.431Z,3.10
2023-03-29T20:06:19.942Z,3.00
2023-03-29T20:08:56.117Z,3.30
2023-03-29T20:11:29.912Z,3.30
2023-03-29T20:14:03.330Z,3.00
2023-03-29T20:16:38.882Z,3.10
2023-03-29T20:19:17.747Z,3.50
2023-03-29T20:21:55.133Z,3.30
2023-03-29T20:24:29.243Z,3.30
2023-03-29T20:27:04.839Z,3.40
2023-03-29T20:29:41.622Z,3.40
2023-03-29T20:32:16.874Z,3.30
2023-03-29T20:34:50.179Z,3.40
2023-03-29T20:37:25.904Z,3.30
2023-03-29T20:40:00.895Z,3.40
2023-03-29T20:42:34.491Z,3.80
2023-03-29T20:45:18.740Z,3.70
2023-03-29T20:47:56.180Z,3.80
2023-03-29T20:50:30.739Z,3.50
2023-03-29T20:53:04.701Z,3.70
2023-03-29T20:55:39.055Z,4.00
2023-03-29T20:58:12.441Z,4.00
2023-03-29T21:00:48.457Z,4.20
2023-03-29T21:03:23.820Z,4.10
2023-03-29T21:06:02.710Z,4.20
2023-03-29T21:08:38.765Z,4.40
2023-03-29T21:11:19.431Z,4.50
2023-03-29T21:13:58.593Z,4.20
2023-03-29T21:16:34.931Z,3.90
2023-03-29T21:19:09.975Z,4.30
2023-03-29T21:21:45.407Z,4.40
2023-03-29T21:24:20.493Z,4.30
2023-03-29T21:26:55.309Z,4.30
2023-03-29T21:29:30.007Z,4.60
2023-03-29T21:32:05.957Z,4.40
2023-03-29T21:34:42.077Z,4.80
2023-03-29T21:37:16.951Z,4.50
2023-03-29T21:39:52.019Z,4.80
2023-03-29T21:42:26.154Z,5.10
2023-03-29T21:45:01.612Z,5.00
2023-03-29T21:47:37.893Z,5.20
2023-03-29T21:50:14.233Z,5.00
2023-03-29T21:52:49.417Z,5.10
2023-03-29T21:55:25.124Z,5.20
2023-03-29T21:57:59.236Z,5.20
2023-03-29T22:00:33.435Z,5.60
2023-03-29T22:03:09.477Z,5.30
2023-03-29T22:05:45.471Z,5.10
2023-03-29T22:08:19.751Z,5.00
2023-03-29T22:10:57.284Z,5.10
2023-03-29T22:13:33.599Z,5.00
2023-03-29T22:16:14.594Z,5.00
2023-03-29T22:18:52.425Z,5.10
2023-03-29T22:21:31.459Z,5.00
2023-03-29T22:24:06.025Z,5.50
2023-03-29T22:26:44.990Z,5.40
2023-03-29T22:29:20.031Z,5.60
2023-03-29T22:31:55.289Z,5.40
2023-03-29T22:34:31.283Z,5.40
2023-03-29T22:37:05.452Z,5.40
2023-03-29T22:39:40.637Z,5.20
2023-03-29T22:42:17.565Z,5.70
2023-03-29T22:44:52.808Z,5.70
2023-03-29T22:47:26.914Z,5.30
2023-03-29T22:50:03.705Z,5.40
2023-03-29T22:52:37.392Z,5.30
2023-03-29T22:55:12.691Z,5.50
2023-03-29T22:57:49.789Z,5.30
2023-03-29T23:00:24.710Z,5.40
2023-03-29T23:03:00.735Z,5.30
2023-03-29T23:05:37.650Z,5.60
2023-03-29T23:08:14.158Z,5.30
2023-03-29T23:10:52.941Z,5.50
2023-03-29T23:13:30.280Z,5.70
2023-03-29T23:16:08.618Z,5.30
2023-03-29T23:18:43.883Z,5.70
2023-03-29T23:21:19.940Z,5.60
2023-03-29T23:23:55.183Z,5.20
2023-03-29T23:26:31.597Z,5.70
2023-03-29T23:29:07.696Z,5.70
2023-03-29T23:31:42.562Z,5.20
2023-03-29T23:34:20.355Z,5.60
2023-03-29T23:36:56.855Z,5.90
2023-03-29T23:39:34.167Z,5.70
2023-03-29T23:42:14.190Z,5.60
2023-03-29T23:44:49.535Z,5.50
2023-03-29T23:47:23.734Z,5.90
2023-03-29T23:50:02.377Z,6.00
2023-03-29T23:52:37.457Z,5.60
2023-03-29T23:55:15.820Z,5.50
2023-03-29T23:57:51.529Z,6.20
